sensor_id;sensor_type;location;lat;lon;timestamp;pressure;altitude;pressure_sealevel;temperature;humidity
33953;BME280;20231;42.710;23.280;2023-03-13T00:01:58;95110.34;;;5.10;44.51
33953;BME280;20231;42.710;23.280;2023-03-13T00:04:29;95083.88;;;5.07;44.50
33953;BME280;20231;42.710;23.280;2023-03-13T00:07:32;95141.63;;;5.60;44.47
33953;BME280;20231;42.710;23.280;2023-03-13T00:09:58;95138.22;;;5.43;44.86
33953;BME280;20231;42.710;23.280;2023-03-13T00:12:26;95127.91;;;5.31;44.80
33953;BME280;20231;42.710;23.280;2023-03-13T00:14:54;95065.22;;;4.82;45.06
33953;BME280;20231;42.710;23.280;2023-03-13T00:17:22;95198.38;;;5.97;44.52
33953;BME280;20231;42.710;23.280;2023-03-13T00:19:49;95159.16;;;5.43;44.74
33953;BME280;20231;42.710;23.280;2023-03-13T00:22:14;95158.41;;;5.26;44.93
33953;BME280;20231;42.710;23.280;2023-03-13T00:24:40;95144.81;;;5.07;45.39
33953;BME280;20231;42.710;23.280;2023-03-13T00:27:05;95145.13;;;4.94;45.81
33953;BME280;20231;42.710;23.280;2023-03-13T00:29:32;95215.16;;;5.25;45.80
33953;BME280;20231;42.710;23.280;2023-03-13T00:31:58;95194.88;;;5.32;45.49
33953;BME280;20231;42.710;23.280;2023-03-13T00:34:24;95173.31;;;5.42;45.09
33953;BME280;20231;42.710;23.280;2023-03-13T00:36:53;95187.59;;;5.56;44.93
33953;BME280;20231;42.710;23.280;2023-03-13T00:39:20;95157.97;;;5.50;44.71
33953;BME280;20231;42.710;23.280;2023-03-13T00:41:45;95167.94;;;5.53;44.56
33953;BME280;20231;42.710;23.280;2023-03-13T00:44:11;95147.81;;;5.16;44.95
33953;BME280;20231;42.710;23.280;2023-03-13T00:46:37;95150.44;;;5.54;44.47
33953;BME280;20231;42.710;23.280;2023-03-13T00:49:02;95136.47;;;5.27;44.31
33953;BME280;20231;42.710;23.280;2023-03-13T00:51:29;95156.41;;;5.70;43.97
33953;BME280;20231;42.710;23.280;2023-03-13T00:53:56;95195.75;;;5.59;44.89
33953;BME280;20231;42.710;23.280;2023-03-13T00:56:24;95154.34;;;5.51;44.17
33953;BME280;20231;42.710;23.280;2023-03-13T00:58:50;95145.91;;;5.49;44.15
33953;BME280;20231;42.710;23.280;2023-03-13T01:01:23;95198.75;;;5.67;44.32
33953;BME280;20231;42.710;23.280;2023-03-13T01:03:54;95143.56;;;5.48;44.04
33953;BME280;20231;42.710;23.280;2023-03-13T01:06:22;95167.28;;;5.25;44.40
33953;BME280;20231;42.710;23.280;2023-03-13T01:08:48;95129.28;;;5.01;44.68
33953;BME280;20231;42.710;23.280;2023-03-13T01:11:19;95134.44;;;5.12;44.37
33953;BME280;20231;42.710;23.280;2023-03-13T01:13:46;95130.31;;;5.00;44.60
33953;BME280;20231;42.710;23.280;2023-03-13T01:16:16;95140.97;;;5.31;44.43
33953;BME280;20231;42.710;23.280;2023-03-13T01:18:45;95154.91;;;5.37;43.98
33953;BME280;20231;42.710;23.280;2023-03-13T01:21:12;95182.06;;;5.52;44.07
33953;BME280;20231;42.710;23.280;2023-03-13T01:23:38;95162.84;;;5.42;43.82
33953;BME280;20231;42.710;23.280;2023-03-13T01:26:05;95191.53;;;5.74;43.39
33953;BME280;20231;42.710;23.280;2023-03-13T01:28:32;95165.94;;;5.22;44.19
33953;BME280;20231;42.710;23.280;2023-03-13T01:30:58;95211.00;;;5.62;44.26
33953;BME280;20231;42.710;23.280;2023-03-13T01:33:24;95169.69;;;5.26;44.07
33953;BME280;20231;42.710;23.280;2023-03-13T01:36:00;95143.94;;;5.18;44.05
33953;BME280;20231;42.710;23.280;2023-03-13T01:38:27;95176.91;;;5.03;44.62
33953;BME280;20231;42.710;23.280;2023-03-13T01:40:54;95110.22;;;4.51;44.84
33953;BME280;20231;42.710;23.280;2023-03-13T01:43:25;95194.00;;;5.10;45.08
33953;BME280;20231;42.710;23.280;2023-03-13T01:46:12;95164.69;;;4.76;45.34
33953;BME280;20231;42.710;23.280;2023-03-13T01:48:58;95210.09;;;5.19;45.02
33953;BME280;20231;42.710;23.280;2023-03-13T01:51:28;95217.22;;;5.40;44.24
33953;BME280;20231;42.710;23.280;2023-03-13T01:56:35;95217.22;;;5.23;44.77
33953;BME280;20231;42.710;23.280;2023-03-13T01:59:03;95163.19;;;5.12;43.95
33953;BME280;20231;42.710;23.280;2023-03-13T02:01:29;95197.88;;;4.92;45.29
33953;BME280;20231;42.710;23.280;2023-03-13T02:03:56;95138.00;;;4.74;44.78
33953;BME280;20231;42.710;23.280;2023-03-13T02:06:22;95161.66;;;5.16;44.19
33953;BME280;20231;42.710;23.280;2023-03-13T02:08:54;95183.47;;;5.22;44.11
33953;BME280;20231;42.710;23.280;2023-03-13T02:13:49;95169.31;;;5.01;44.60
33953;BME280;20231;42.710;23.280;2023-03-13T02:16:16;95173.41;;;4.81;44.79
33953;BME280;20231;42.710;23.280;2023-03-13T02:18:43;95175.34;;;4.41;45.12
33953;BME280;20231;42.710;23.280;2023-03-13T02:21:19;95206.38;;;4.98;44.49
33953;BME280;20231;42.710;23.280;2023-03-13T02:24:20;95232.53;;;5.31;44.62
33953;BME280;20231;42.710;23.280;2023-03-13T02:26:52;95189.34;;;4.96;44.50
33953;BME280;20231;42.710;23.280;2023-03-13T02:29:19;95245.75;;;4.92;45.75
33953;BME280;20231;42.710;23.280;2023-03-13T02:31:46;95187.19;;;4.32;46.13
33953;BME280;20231;42.710;23.280;2023-03-13T02:34:14;95252.22;;;4.73;46.74
33953;BME280;20231;42.710;23.280;2023-03-13T02:36:41;95208.06;;;4.60;46.41
33953;BME280;20231;42.710;23.280;2023-03-13T02:39:10;95221.56;;;4.85;46.38
33953;BME280;20231;42.710;23.280;2023-03-13T02:41:39;95240.53;;;4.92;46.58
33953;BME280;20231;42.710;23.280;2023-03-13T02:44:06;95278.69;;;5.09;46.95
33953;BME280;20231;42.710;23.280;2023-03-13T02:46:46;95272.78;;;5.14;46.70
33953;BME280;20231;42.710;23.280;2023-03-13T02:49:27;95249.91;;;4.77;47.65
33953;BME280;20231;42.710;23.280;2023-03-13T02:51:59;95237.06;;;4.75;47.56
33953;BME280;20231;42.710;23.280;2023-03-13T02:54:34;95233.34;;;4.71;47.46
33953;BME280;20231;42.710;23.280;2023-03-13T02:57:02;95248.03;;;4.61;47.97
33953;BME280;20231;42.710;23.280;2023-03-13T02:59:28;95240.25;;;4.22;48.64
33953;BME280;20231;42.710;23.280;2023-03-13T03:01:54;95246.38;;;4.27;48.74
33953;BME280;20231;42.710;23.280;2023-03-13T03:04:21;95257.56;;;4.39;48.87
33953;BME280;20231;42.710;23.280;2023-03-13T03:06:47;95219.44;;;4.26;48.93
33953;BME280;20231;42.710;23.280;2023-03-13T03:09:13;95239.31;;;4.27;48.88
33953;BME280;20231;42.710;23.280;2023-03-13T03:11:49;95283.28;;;4.58;48.88
33953;BME280;20231;42.710;23.280;2023-03-13T03:14:15;95301.38;;;4.76;48.68
33953;BME280;20231;42.710;23.280;2023-03-13T03:16:41;95295.03;;;4.72;48.27
33953;BME280;20231;42.710;23.280;2023-03-13T03:19:07;95279.66;;;4.48;49.00
33953;BME280;20231;42.710;23.280;2023-03-13T03:21:32;95271.66;;;4.38;48.54
33953;BME280;20231;42.710;23.280;2023-03-13T03:23:58;95298.72;;;4.21;49.44
33953;BME280;20231;42.710;23.280;2023-03-13T03:26:23;95279.84;;;4.30;49.17
33953;BME280;20231;42.710;23.280;2023-03-13T03:28:49;95267.47;;;4.25;48.76
33953;BME280;20231;42.710;23.280;2023-03-13T03:31:15;95284.72;;;4.38;48.73
33953;BME280;20231;42.710;23.280;2023-03-13T03:33:41;95237.97;;;3.86;49.74
33953;BME280;20231;42.710;23.280;2023-03-13T03:36:09;95278.66;;;3.98;50.39
33953;BME280;20231;42.710;23.280;2023-03-13T03:38:35;95302.97;;;3.99;50.77
33953;BME280;20231;42.710;23.280;2023-03-13T03:41:01;95277.56;;;3.71;50.81
33953;BME280;20231;42.710;23.280;2023-03-13T03:43:27;95286.63;;;3.92;50.38
33953;BME280;20231;42.710;23.280;2023-03-13T03:45:52;95294.56;;;3.97;50.00
33953;BME280;20231;42.710;23.280;2023-03-13T03:48:18;95294.44;;;4.03;49.71
33953;BME280;20231;42.710;23.280;2023-03-13T03:50:43;95309.31;;;4.03;50.14
33953;BME280;20231;42.710;23.280;2023-03-13T03:53:09;95307.50;;;3.80;50.85
33953;BME280;20231;42.710;23.280;2023-03-13T03:55:34;95314.66;;;3.73;51.13
33953;BME280;20231;42.710;23.280;2023-03-13T03:58:00;95360.38;;;4.22;50.87
33953;BME280;20231;42.710;23.280;2023-03-13T04:00:25;95324.84;;;3.86;50.83
33953;BME280;20231;42.710;23.280;2023-03-13T04:02:52;95325.31;;;3.72;51.33
33953;BME280;20231;42.710;23.280;2023-03-13T04:05:17;95328.81;;;3.89;50.90
33953;BME280;20231;42.710;23.280;2023-03-13T04:07:43;95318.16;;;4.02;50.26
33953;BME280;20231;42.710;23.280;2023-03-13T04:10:09;95330.41;;;3.78;50.83
33953;BME280;20231;42.710;23.280;2023-03-13T04:12:34;95339.25;;;3.89;50.81
33953;BME280;20231;42.710;23.280;2023-03-13T04:15:00;95353.56;;;4.09;50.45
33953;BME280;20231;42.710;23.280;2023-03-13T04:17:25;95348.13;;;3.99;50.29
33953;BME280;20231;42.710;23.280;2023-03-13T04:19:51;95335.97;;;3.59;51.02
33953;BME280;20231;42.710;23.280;2023-03-13T04:22:17;95334.06;;;3.66;51.01
33953;BME280;20231;42.710;23.280;2023-03-13T04:24:42;95357.09;;;3.80;51.16
33953;BME280;20231;42.710;23.280;2023-03-13T04:27:08;95313.97;;;3.55;51.03
33953;BME280;20231;42.710;23.280;2023-03-13T04:29:33;95342.31;;;3.97;50.49
33953;BME280;20231;42.710;23.280;2023-03-13T04:31:59;95361.28;;;3.58;51.33
33953;BME280;20231;42.710;23.280;2023-03-13T04:34:24;95338.09;;;3.39;51.76
33953;BME280;20231;42.710;23.280;2023-03-13T04:36:50;95363.75;;;3.42;51.55
33953;BME280;20231;42.710;23.280;2023-03-13T04:39:17;95369.47;;;3.85;50.55
33953;BME280;20231;42.710;23.280;2023-03-13T04:41:42;95370.25;;;3.97;50.25
33953;BME280;20231;42.710;23.280;2023-03-13T04:44:08;95359.69;;;3.80;50.48
33953;BME280;20231;42.710;23.280;2023-03-13T04:46:33;95378.41;;;3.66;50.45
33953;BME280;20231;42.710;23.280;2023-03-13T04:48:58;95420.28;;;3.82;50.92
33953;BME280;20231;42.710;23.280;2023-03-13T04:51:25;95392.72;;;3.34;51.79
33953;BME280;20231;42.710;23.280;2023-03-13T04:53:56;95433.47;;;3.99;51.20
33953;BME280;20231;42.710;23.280;2023-03-13T04:56:46;95395.19;;;3.70;51.35
33953;BME280;20231;42.710;23.280;2023-03-13T04:59:24;95393.94;;;3.72;51.16
33953;BME280;20231;42.710;23.280;2023-03-13T05:01:49;95383.75;;;3.59;50.97
33953;BME280;20231;42.710;23.280;2023-03-13T05:04:15;95374.88;;;3.60;50.88
33953;BME280;20231;42.710;23.280;2023-03-13T05:06:40;95416.97;;;3.75;51.29
33953;BME280;20231;42.710;23.280;2023-03-13T05:09:06;95416.66;;;3.95;50.93
33953;BME280;20231;42.710;23.280;2023-03-13T05:11:34;95419.69;;;3.57;51.83
33953;BME280;20231;42.710;23.280;2023-03-13T05:14:07;95427.06;;;3.72;51.52
33953;BME280;20231;42.710;23.280;2023-03-13T05:16:35;95433.22;;;3.89;51.28
33953;BME280;20231;42.710;23.280;2023-03-13T05:19:00;95405.41;;;3.83;51.00
33953;BME280;20231;42.710;23.280;2023-03-13T05:21:29;95448.00;;;4.18;50.67
33953;BME280;20231;42.710;23.280;2023-03-13T05:23:54;95424.84;;;4.21;50.20
33953;BME280;20231;42.710;23.280;2023-03-13T05:26:22;95428.69;;;4.19;50.37
33953;BME280;20231;42.710;23.280;2023-03-13T05:28:50;95409.63;;;4.07;50.04
33953;BME280;20231;42.710;23.280;2023-03-13T05:31:15;95451.84;;;4.26;50.64
33953;BME280;20231;42.710;23.280;2023-03-13T05:33:41;95401.69;;;3.90;50.55
33953;BME280;20231;42.710;23.280;2023-03-13T05:36:06;95420.53;;;4.04;50.77
33953;BME280;20231;42.710;23.280;2023-03-13T05:38:32;95456.97;;;4.22;50.56
33953;BME280;20231;42.710;23.280;2023-03-13T05:40:58;95447.91;;;4.35;50.24
33953;BME280;20231;42.710;23.280;2023-03-13T05:43:23;95404.16;;;4.20;50.03
33953;BME280;20231;42.710;23.280;2023-03-13T05:45:49;95431.53;;;4.28;50.10
33953;BME280;20231;42.710;23.280;2023-03-13T05:51:06;95468.50;;;6.54;88.09
33953;BME280;20231;42.710;23.280;2023-03-13T05:53:37;95461.97;;;7.37;86.29
33953;BME280;20231;42.710;23.280;2023-03-13T07:10:58;95443.63;;;5.75;46.56
33953;BME280;20231;42.710;23.280;2023-03-13T07:13:27;95453.25;;;5.58;46.67
33953;BME280;20231;42.710;23.280;2023-03-13T07:15:53;95450.75;;;5.63;46.61
33953;BME280;20231;42.710;23.280;2023-03-13T07:18:19;95450.41;;;5.60;46.62
33953;BME280;20231;42.710;23.280;2023-03-13T07:20:51;95420.78;;;5.43;46.64
33953;BME280;20231;42.710;23.280;2023-03-13T07:23:18;95490.00;;;5.91;46.43
33953;BME280;20231;42.710;23.280;2023-03-13T07:26:00;95425.28;;;5.59;46.48
33953;BME280;20231;42.710;23.280;2023-03-13T07:28:28;95462.66;;;5.98;46.21
33953;BME280;20231;42.710;23.280;2023-03-13T07:31:12;95443.50;;;5.81;46.54
33953;BME280;20231;42.710;23.280;2023-03-13T07:33:38;95426.94;;;5.76;46.67
33953;BME280;20231;42.710;23.280;2023-03-13T07:36:04;95466.94;;;6.04;46.62
33953;BME280;20231;42.710;23.280;2023-03-13T07:38:29;95402.09;;;5.06;47.85
33953;BME280;20231;42.710;23.280;2023-03-13T07:40:56;95429.41;;;5.55;47.30
33953;BME280;20231;42.710;23.280;2023-03-13T07:43:22;95449.84;;;5.85;47.12
33953;BME280;20231;42.710;23.280;2023-03-13T07:46:01;95487.56;;;6.17;46.87
33953;BME280;20231;42.710;23.280;2023-03-13T07:48:32;95454.94;;;6.08;46.89
33953;BME280;20231;42.710;23.280;2023-03-13T07:50:58;95413.91;;;5.97;46.61
33953;BME280;20231;42.710;23.280;2023-03-13T07:53:25;95485.19;;;6.48;46.34
33953;BME280;20231;42.710;23.280;2023-03-13T07:55:56;95472.16;;;6.53;45.89
33953;BME280;20231;42.710;23.280;2023-03-13T07:58:22;95457.22;;;6.54;45.94
33953;BME280;20231;42.710;23.280;2023-03-13T08:00:48;95414.75;;;6.36;45.61
33953;BME280;20231;42.710;23.280;2023-03-13T08:03:13;95420.31;;;6.39;45.90
33953;BME280;20231;42.710;23.280;2023-03-13T08:05:43;95416.97;;;6.43;45.42
33953;BME280;20231;42.710;23.280;2023-03-13T08:08:08;95430.22;;;6.53;45.21
33953;BME280;20231;42.710;23.280;2023-03-13T08:10:34;95465.81;;;6.87;45.49
33953;BME280;20231;42.710;23.280;2023-03-13T08:13:00;95405.34;;;6.56;45.38
33953;BME280;20231;42.710;23.280;2023-03-13T08:15:25;95466.66;;;6.93;45.45
33953;BME280;20231;42.710;23.280;2023-03-13T08:17:53;95449.88;;;6.72;44.75
33953;BME280;20231;42.710;23.280;2023-03-13T08:20:32;95388.88;;;6.39;44.99
33953;BME280;20231;42.710;23.280;2023-03-13T08:23:00;95372.13;;;6.24;44.57
33953;BME280;20231;42.710;23.280;2023-03-13T08:25:39;95448.13;;;6.78;44.82
33953;BME280;20231;42.710;23.280;2023-03-13T08:28:04;95411.06;;;6.53;44.75
33953;BME280;20231;42.710;23.280;2023-03-13T08:30:31;95474.91;;;7.01;44.50
33953;BME280;20231;42.710;23.280;2023-03-13T08:32:57;95430.94;;;6.33;45.16
33953;BME280;20231;42.710;23.280;2023-03-13T08:35:22;95434.28;;;6.44;45.10
33953;BME280;20231;42.710;23.280;2023-03-13T08:37:48;95476.06;;;6.89;44.97
33953;BME280;20231;42.710;23.280;2023-03-13T08:40:13;95423.09;;;6.70;44.98
33953;BME280;20231;42.710;23.280;2023-03-13T08:42:39;95420.41;;;6.87;44.05
33953;BME280;20231;42.710;23.280;2023-03-13T08:45:12;95449.16;;;7.19;43.91
33953;BME280;20231;42.710;23.280;2023-03-13T08:47:38;95415.00;;;6.93;44.25
33953;BME280;20231;42.710;23.280;2023-03-13T08:50:03;95421.91;;;6.99;44.02
33953;BME280;20231;42.710;23.280;2023-03-13T08:52:29;95417.69;;;7.19;43.83
33953;BME280;20231;42.710;23.280;2023-03-13T08:54:54;95412.69;;;7.18;43.83
33953;BME280;20231;42.710;23.280;2023-03-13T08:57:21;95423.09;;;7.34;43.75
33953;BME280;20231;42.710;23.280;2023-03-13T08:59:46;95450.16;;;7.61;43.90
33953;BME280;20231;42.710;23.280;2023-03-13T09:02:12;95411.09;;;7.43;43.97
33953;BME280;20231;42.710;23.280;2023-03-13T09:04:46;95434.00;;;7.74;43.39
33953;BME280;20231;42.710;23.280;2023-03-13T09:07:37;95458.38;;;7.70;43.59
33953;BME280;20231;42.710;23.280;2023-03-13T09:13:41;95398.31;;;7.52;43.71
33953;BME280;20231;42.710;23.280;2023-03-13T09:16:15;95366.81;;;7.52;44.00
33953;BME280;20231;42.710;23.280;2023-03-13T09:18:44;95417.16;;;8.01;44.00
33953;BME280;20231;42.710;23.280;2023-03-13T09:21:40;95451.81;;;8.25;42.93
33953;BME280;20231;42.710;23.280;2023-03-13T09:24:09;95374.00;;;7.61;43.33
33953;BME280;20231;42.710;23.280;2023-03-13T09:26:35;95439.56;;;8.09;43.29
33953;BME280;20231;42.710;23.280;2023-03-13T09:29:03;95394.94;;;7.82;43.14
33953;BME280;20231;42.710;23.280;2023-03-13T09:31:30;95453.38;;;7.68;44.14
33953;BME280;20231;42.710;23.280;2023-03-13T09:33:56;95414.47;;;7.39;44.35
33953;BME280;20231;42.710;23.280;2023-03-13T09:36:22;95418.84;;;7.28;44.21
33953;BME280;20231;42.710;23.280;2023-03-13T09:38:49;95462.69;;;7.80;44.29
33953;BME280;20231;42.710;23.280;2023-03-13T09:41:28;95423.22;;;7.76;43.47
33953;BME280;20231;42.710;23.280;2023-03-13T09:47:11;95377.94;;;7.90;43.04
33953;BME280;20231;42.710;23.280;2023-03-13T09:52:42;95435.22;;;8.60;43.23
33953;BME280;20231;42.710;23.280;2023-03-13T09:55:43;95437.97;;;8.75;44.02
33953;BME280;20231;42.710;23.280;2023-03-13T09:59:28;95409.53;;;8.72;43.12
33953;BME280;20231;42.710;23.280;2023-03-13T10:02:02;95342.31;;;8.40;41.71
33953;BME280;20231;42.710;23.280;2023-03-13T10:04:38;95354.94;;;8.43;41.67
33953;BME280;20231;42.710;23.280;2023-03-13T10:07:09;95416.69;;;8.41;42.51
33953;BME280;20231;42.710;23.280;2023-03-13T10:09:36;95376.75;;;8.39;43.17
33953;BME280;20231;42.710;23.280;2023-03-13T10:17:31;95388.28;;;8.84;42.34
33953;BME280;20231;42.710;23.280;2023-03-13T10:20:00;95402.84;;;9.06;41.39
33953;BME280;20231;42.710;23.280;2023-03-13T10:22:30;95358.78;;;8.77;41.29
33953;BME280;20231;42.710;23.280;2023-03-13T10:25:00;95403.66;;;9.12;41.65
33953;BME280;20231;42.710;23.280;2023-03-13T10:27:47;95339.53;;;8.71;41.20
33953;BME280;20231;42.710;23.280;2023-03-13T10:32:51;95396.56;;;9.07;41.52
33953;BME280;20231;42.710;23.280;2023-03-13T10:35:23;95310.88;;;8.75;41.57
33953;BME280;20231;42.710;23.280;2023-03-13T10:37:49;95369.25;;;9.33;41.07
33953;BME280;20231;42.710;23.280;2023-03-13T10:42:47;95360.38;;;10.28;55.23
33953;BME280;20231;42.710;23.280;2023-03-13T10:45:21;95282.84;;;10.14;64.03
33953;BME280;20231;42.710;23.280;2023-03-13T10:48:00;95266.56;;;9.63;41.73
33953;BME280;20231;42.710;23.280;2023-03-13T10:54:38;95300.09;;;10.70;53.84
33953;BME280;20231;42.710;23.280;2023-03-13T11:08:49;95315.63;;;10.81;39.29
33953;BME280;20231;42.710;23.280;2023-03-13T11:12:06;95238.75;;;10.40;38.32
33953;BME280;20231;42.710;23.280;2023-03-13T11:15:14;95227.97;;;10.31;38.20
33953;BME280;20231;42.710;23.280;2023-03-13T11:31:27;95316.28;;;11.12;38.70
33953;BME280;20231;42.710;23.280;2023-03-13T11:34:55;95294.81;;;11.28;38.45
33953;BME280;20231;42.710;23.280;2023-03-13T11:41:51;95283.34;;;11.42;37.93
33953;BME280;20231;42.710;23.280;2023-03-13T11:44:48;95289.31;;;11.63;38.95
33953;BME280;20231;42.710;23.280;2023-03-13T11:48:27;95269.59;;;11.84;38.55
33953;BME280;20231;42.710;23.280;2023-03-13T12:01:10;95251.84;;;12.12;35.72
33953;BME280;20231;42.710;23.280;2023-03-13T12:09:59;95240.16;;;11.90;35.71
33953;BME280;20231;42.710;23.280;2023-03-13T12:15:43;95179.13;;;12.10;37.42
33953;BME280;20231;42.710;23.280;2023-03-13T12:18:37;95229.50;;;12.70;36.07
33953;BME280;20231;42.710;23.280;2023-03-13T12:21:34;95232.47;;;12.64;35.55
33953;BME280;20231;42.710;23.280;2023-03-13T12:31:28;95219.53;;;12.80;34.80
33953;BME280;20231;42.710;23.280;2023-03-13T12:44:06;95140.88;;;12.63;34.40
33953;BME280;20231;42.710;23.280;2023-03-13T13:09:33;95140.84;;;13.04;33.24
33953;BME280;20231;42.710;23.280;2023-03-13T13:12:27;95201.91;;;12.53;33.52
33953;BME280;20231;42.710;23.280;2023-03-13T13:15:28;95224.28;;;12.83;33.75
33953;BME280;20231;42.710;23.280;2023-03-13T13:21:36;95205.34;;;13.63;33.24
33953;BME280;20231;42.710;23.280;2023-03-13T13:24:47;95210.81;;;13.99;32.67
33953;BME280;20231;42.710;23.280;2023-03-13T13:27:47;95160.78;;;13.79;32.21
33953;BME280;20231;42.710;23.280;2023-03-13T13:30:41;95132.03;;;13.86;32.70
33953;BME280;20231;42.710;23.280;2023-03-13T13:36:51;95130.00;;;13.64;32.19
33953;BME280;20231;42.710;23.280;2023-03-13T13:39:45;95158.56;;;13.86;31.75
33953;BME280;20231;42.710;23.280;2023-03-13T13:46:02;95106.47;;;13.90;31.51
33953;BME280;20231;42.710;23.280;2023-03-13T13:58:16;95100.75;;;14.36;33.20
33953;BME280;20231;42.710;23.280;2023-03-13T14:00:55;95181.75;;;14.88;32.67
33953;BME280;20231;42.710;23.280;2023-03-13T14:03:28;95188.78;;;14.92;31.76
33953;BME280;20231;42.710;23.280;2023-03-13T14:06:20;95173.66;;;14.79;33.22
33953;BME280;20231;42.710;23.280;2023-03-13T14:08:54;95119.66;;;14.35;32.79
33953;BME280;20231;42.710;23.280;2023-03-13T14:11:43;95177.69;;;14.90;34.63
33953;BME280;20231;42.710;23.280;2023-03-13T14:14:19;95156.00;;;14.97;32.32
33953;BME280;20231;42.710;23.280;2023-03-13T14:16:50;95183.09;;;15.20;33.26
33953;BME280;20231;42.710;23.280;2023-03-13T14:21:50;95079.16;;;14.65;31.95
33953;BME280;20231;42.710;23.280;2023-03-13T14:24:22;95082.56;;;14.57;32.81
33953;BME280;20231;42.710;23.280;2023-03-13T14:26:53;95084.28;;;14.61;32.58
33953;BME280;20231;42.710;23.280;2023-03-13T14:29:21;95161.19;;;15.15;30.64
33953;BME280;20231;42.710;23.280;2023-03-13T14:31:57;95075.84;;;14.59;32.11
33953;BME280;20231;42.710;23.280;2023-03-13T14:34:26;95100.34;;;14.92;31.38
33953;BME280;20231;42.710;23.280;2023-03-13T14:37:02;95125.88;;;15.01;32.47
33953;BME280;20231;42.710;23.280;2023-03-13T14:39:45;95160.81;;;15.08;30.67
33953;BME280;20231;42.710;23.280;2023-03-13T14:42:17;95175.44;;;15.19;30.86
33953;BME280;20231;42.710;23.280;2023-03-13T14:45:11;95086.25;;;14.69;30.97
33953;BME280;20231;42.710;23.280;2023-03-13T14:47:49;95138.16;;;15.10;29.21
33953;BME280;20231;42.710;23.280;2023-03-13T14:50:17;95161.78;;;15.25;31.15
33953;BME280;20231;42.710;23.280;2023-03-13T14:57:03;95163.09;;;15.36;30.07
33953;BME280;20231;42.710;23.280;2023-03-13T15:09:55;95106.19;;;15.37;30.33
33953;BME280;20231;42.710;23.280;2023-03-13T15:19:23;95071.81;;;14.84;29.83
33953;BME280;20231;42.710;23.280;2023-03-13T15:22:01;95164.72;;;15.46;30.29
33953;BME280;20231;42.710;23.280;2023-03-13T15:24:33;95117.72;;;15.19;30.21
33953;BME280;20231;42.710;23.280;2023-03-13T15:27:00;95164.97;;;15.58;30.52
33953;BME280;20231;42.710;23.280;2023-03-13T15:29:29;95165.72;;;15.58;30.04
33953;BME280;20231;42.710;23.280;2023-03-13T15:31:58;95103.06;;;15.22;30.42
33953;BME280;20231;42.710;23.280;2023-03-13T15:34:38;95180.34;;;15.69;30.75
33953;BME280;20231;42.710;23.280;2023-03-13T15:37:10;95105.69;;;15.35;30.33
33953;BME280;20231;42.710;23.280;2023-03-13T15:39:44;95084.88;;;15.15;29.94
33953;BME280;20231;42.710;23.280;2023-03-13T15:42:49;95172.50;;;15.86;31.03
33953;BME280;20231;42.710;23.280;2023-03-13T15:45:21;95121.88;;;15.47;30.28
33953;BME280;20231;42.710;23.280;2023-03-13T15:47:50;95181.03;;;15.74;29.78
33953;BME280;20231;42.710;23.280;2023-03-13T15:50:36;95176.78;;;15.73;29.69
33953;BME280;20231;42.710;23.280;2023-03-13T15:53:10;95181.94;;;15.70;30.22
33953;BME280;20231;42.710;23.280;2023-03-13T15:56:15;95087.97;;;15.09;30.80
33953;BME280;20231;42.710;23.280;2023-03-13T15:58:59;95114.31;;;15.19;31.11
33953;BME280;20231;42.710;23.280;2023-03-13T16:05:01;95111.47;;;15.15;30.68
33953;BME280;20231;42.710;23.280;2023-03-13T16:11:25;95149.59;;;15.55;43.13
33953;BME280;20231;42.710;23.280;2023-03-13T16:17:12;95101.81;;;15.41;34.93
33953;BME280;20231;42.710;23.280;2023-03-13T16:20:29;95096.91;;;15.35;32.49
33953;BME280;20231;42.710;23.280;2023-03-13T16:23:07;95107.03;;;15.24;32.19
33953;BME280;20231;42.710;23.280;2023-03-13T16:29:23;95149.84;;;15.45;31.65
33953;BME280;20231;42.710;23.280;2023-03-13T16:32:16;95085.53;;;14.99;32.13
33953;BME280;20231;42.710;23.280;2023-03-13T16:35:13;95150.00;;;15.40;31.78
33953;BME280;20231;42.710;23.280;2023-03-13T16:41:30;95170.63;;;15.21;32.38
33953;BME280;20231;42.710;23.280;2023-03-13T16:44:39;95064.66;;;14.49;33.00
33953;BME280;20231;42.710;23.280;2023-03-13T16:47:26;95159.03;;;15.03;32.58
33953;BME280;20231;42.710;23.280;2023-03-13T17:04:51;95183.16;;;14.58;32.67
33953;BME280;20231;42.710;23.280;2023-03-13T17:07:24;95104.22;;;13.97;32.28
33953;BME280;20231;42.710;23.280;2023-03-13T17:09:53;95147.69;;;14.27;32.93
33953;BME280;20231;42.710;23.280;2023-03-13T17:12:19;95132.66;;;14.10;33.16
33953;BME280;20231;42.710;23.280;2023-03-13T17:14:47;95157.09;;;14.20;33.69
33953;BME280;20231;42.710;23.280;2023-03-13T17:20:49;95159.38;;;14.13;33.46
33953;BME280;20231;42.710;23.280;2023-03-13T17:29:22;95177.78;;;13.91;32.89
33953;BME280;20231;42.710;23.280;2023-03-13T17:31:49;95205.66;;;14.07;32.70
33953;BME280;20231;42.710;23.280;2023-03-13T17:34:26;95178.50;;;13.97;32.86
33953;BME280;20231;42.710;23.280;2023-03-13T17:36:55;95165.91;;;13.75;33.17
33953;BME280;20231;42.710;23.280;2023-03-13T17:39:20;95156.09;;;13.44;33.47
33953;BME280;20231;42.710;23.280;2023-03-13T17:41:48;95181.19;;;13.65;33.80
33953;BME280;20231;42.710;23.280;2023-03-13T17:44:22;95189.22;;;13.28;34.33
33953;BME280;20231;42.710;23.280;2023-03-13T17:47:10;95203.03;;;13.44;34.69
33953;BME280;20231;42.710;23.280;2023-03-13T17:56:12;95145.28;;;12.90;35.64
33953;BME280;20231;42.710;23.280;2023-03-13T17:59:00;95118.94;;;12.62;35.75
33953;BME280;20231;42.710;23.280;2023-03-13T18:01:50;95117.63;;;12.41;36.06
33953;BME280;20231;42.710;23.280;2023-03-13T18:04:27;95169.66;;;12.69;36.36
33953;BME280;20231;42.710;23.280;2023-03-13T18:06:57;95169.63;;;12.51;36.85
33953;BME280;20231;42.710;23.280;2023-03-13T18:09:59;95156.84;;;12.39;37.10
33953;BME280;20231;42.710;23.280;2023-03-13T18:12:31;95129.03;;;12.18;37.38
33953;BME280;20231;42.710;23.280;2023-03-13T18:14:58;95169.56;;;12.37;37.62
33953;BME280;20231;42.710;23.280;2023-03-13T18:17:30;95203.94;;;12.61;37.91